Terminal Aerodrome Forecast
Issued by NWS

Home | Current Version | Previous Version | Text Only | Print | Product List | Glossary On
Versions: 1 2 3 4 5 6 7 8 9 10 11 12 13
783
FTUS44 KLIX 192320
TAFMSY
TAF
KMSY 192320Z 2000/2024 08006KT P6SM VCTS SCT025CB BKN050
     FM200200 15004KT P6SM SCT025 BKN050
     FM200500 VRB03KT P6SM FEW020 SCT050=

USA.gov is the U.S. government's official web portal to all federal, state and local government web resources and services.